createdAt,value
2019-05-06T00:00:30.327Z,12.33
2019-05-06T00:03:00.203Z,18.85
2019-05-06T00:05:29.822Z,12.90
2019-05-06T00:07:59.373Z,15.93
2019-05-06T00:10:31.309Z,14.78
2019-05-06T00:13:00.877Z,12.85
2019-05-06T00:15:30.872Z,14.43
2019-05-06T00:18:00.386Z,17.90
2019-05-06T00:20:30.014Z,10.85
2019-05-06T00:23:16.574Z,15.15
2019-05-06T00:26:04.090Z,14.18
2019-05-06T00:28:44.701Z,15.03
2019-05-06T00:31:18.720Z,18.50
2019-05-06T00:33:48.276Z,15.40
2019-05-06T00:36:17.784Z,14.28
2019-05-06T00:38:48.910Z,17.85
2019-05-06T00:41:35.856Z,15.98
2019-05-06T00:44:04.027Z,15.00
2019-05-06T00:46:34.404Z,18.00
2019-05-06T00:49:04.278Z,21.62
2019-05-06T00:51:34.046Z,22.48
2019-05-06T00:54:11.167Z,17.20
2019-05-06T00:56:40.738Z,17.62
2019-05-06T00:59:10.184Z,17.02
2019-05-06T01:01:39.733Z,17.45
2019-05-06T01:04:09.571Z,16.40
2019-05-06T01:06:39.205Z,16.23
2019-05-06T01:09:11.222Z,18.52
2019-05-06T01:11:40.943Z,17.23
2019-05-06T01:14:15.020Z,17.55
2019-05-06T01:16:44.952Z,16.20
2019-05-06T01:19:14.453Z,18.55
2019-05-06T01:21:44.757Z,22.30
2019-05-06T01:24:14.810Z,17.10
2019-05-06T01:26:44.522Z,20.08
2019-05-06T01:29:14.648Z,16.93
2019-05-06T01:31:46.080Z,15.08
2019-05-06T01:34:15.304Z,18.95
2019-05-06T01:36:44.758Z,20.77
2019-05-06T01:39:30.637Z,17.67
2019-05-06T01:42:11.391Z,17.77
2019-05-06T01:44:40.941Z,16.77
2019-05-06T01:47:10.505Z,18.37
2019-05-06T01:49:40.316Z,19.45
2019-05-06T01:52:09.807Z,20.92
2019-05-06T01:54:39.266Z,17.82
2019-05-06T01:57:08.821Z,16.67
2019-05-06T01:59:38.275Z,16.77
2019-05-06T02:02:07.794Z,21.25
2019-05-06T02:04:37.345Z,17.67
2019-05-06T02:07:06.829Z,22.50
2019-05-06T02:09:36.785Z,21.68
2019-05-06T02:12:06.351Z,18.52
2019-05-06T02:14:36.103Z,16.42
2019-05-06T02:17:05.669Z,20.82
2019-05-06T02:19:35.837Z,19.37
2019-05-06T02:22:09.958Z,17.10
2019-05-06T02:24:44.079Z,20.27
2019-05-06T02:27:14.288Z,22.73
2019-05-06T02:29:49.504Z,16.07
2019-05-06T02:32:27.084Z,18.05
2019-05-06T02:35:04.913Z,19.77
2019-05-06T02:37:35.331Z,19.02
2019-05-06T02:40:07.900Z,23.60
2019-05-06T02:42:37.521Z,20.02
2019-05-06T02:45:07.161Z,18.42
2019-05-06T02:47:42.944Z,19.65
2019-05-06T02:50:14.371Z,21.80
2019-05-06T02:52:44.311Z,18.17
2019-05-06T02:55:14.170Z,18.30
2019-05-06T02:57:44.126Z,19.62
2019-05-06T03:00:18.986Z,19.48
2019-05-06T03:02:48.795Z,18.17
2019-05-06T03:05:18.322Z,17.87
2019-05-06T03:07:48.162Z,19.57
2019-05-06T03:10:18.282Z,20.48
2019-05-06T03:12:47.763Z,15.30
2019-05-06T03:15:17.615Z,17.23
2019-05-06T03:17:47.156Z,17.80
2019-05-06T03:20:24.165Z,20.15
2019-05-06T03:22:58.255Z,20.00
2019-05-06T03:25:29.570Z,19.35
2019-05-06T03:27:59.069Z,19.55
2019-05-06T03:30:28.552Z,17.77
2019-05-06T03:33:30.220Z,23.18
2019-05-06T03:35:44.210Z,15.10
2019-05-06T03:38:03.655Z,17.62
2019-05-06T03:40:36.082Z,17.90
2019-05-06T03:43:03.245Z,14.83
2019-05-06T03:45:34.367Z,19.77
2019-05-06T03:48:06.115Z,18.00
2019-05-06T03:50:35.717Z,17.20
2019-05-06T03:53:05.787Z,17.77
2019-05-06T03:55:36.278Z,19.05
2019-05-06T03:58:05.767Z,16.75
2019-05-06T04:00:36.357Z,14.70
2019-05-06T04:03:06.185Z,19.23
2019-05-06T04:05:36.407Z,17.23
2019-05-06T04:08:05.852Z,15.53
2019-05-06T04:10:36.980Z,17.73
2019-05-06T04:13:07.142Z,15.10
2019-05-06T04:15:54.965Z,14.07
2019-05-06T04:18:26.228Z,16.37
2019-05-06T04:20:58.548Z,20.88
2019-05-06T04:23:34.051Z,14.60
2019-05-06T04:26:07.120Z,13.25
2019-05-06T04:28:37.760Z,15.60
2019-05-06T04:31:07.283Z,15.32
2019-05-06T04:33:36.844Z,17.82
2019-05-06T04:36:06.635Z,15.20
2019-05-06T04:38:36.198Z,17.35
2019-05-06T04:41:05.715Z,14.03
2019-05-06T04:43:35.214Z,16.35
2019-05-06T04:46:04.795Z,14.58
2019-05-06T04:48:34.360Z,17.80
2019-05-06T04:51:03.986Z,15.23
2019-05-06T04:53:34.134Z,13.10
2019-05-06T04:56:04.461Z,15.90
2019-05-06T04:58:35.232Z,15.72
2019-05-06T05:01:04.829Z,14.15
2019-05-06T05:03:34.391Z,14.58
2019-05-06T05:06:05.819Z,12.13
2019-05-06T05:08:38.535Z,16.02
2019-05-06T05:11:13.701Z,13.00
2019-05-06T05:13:54.114Z,12.53
2019-05-06T05:16:33.100Z,13.13
2019-05-06T05:19:06.661Z,16.67
2019-05-06T05:21:36.184Z,17.05
2019-05-06T05:24:05.716Z,15.28
2019-05-06T05:26:35.605Z,14.25
2019-05-06T05:29:05.495Z,29.02
2019-05-06T05:31:35.127Z,17.85
2019-05-06T05:34:04.814Z,14.68
2019-05-06T05:36:34.454Z,18.67
2019-05-06T05:39:06.011Z,16.00
2019-05-06T05:41:35.643Z,14.70
2019-05-06T05:44:13.281Z,14.93
2019-05-06T05:46:43.841Z,13.53
2019-05-06T05:49:18.422Z,15.50
2019-05-06T05:51:46.586Z,12.73
2019-05-06T05:54:16.395Z,14.70
2019-05-06T05:56:45.903Z,16.15
2019-05-06T05:59:15.469Z,14.53
2019-05-06T06:01:44.990Z,14.23
2019-05-06T06:04:14.543Z,15.35
2019-05-06T06:06:44.126Z,16.95
2019-05-06T06:09:13.607Z,16.02
2019-05-06T06:11:53.167Z,16.70
2019-05-06T06:14:30.096Z,17.50
2019-05-06T06:17:19.443Z,14.75
2019-05-06T06:20:02.947Z,15.32
2019-05-06T06:22:33.187Z,13.83
2019-05-06T06:25:04.095Z,13.65
2019-05-06T06:27:35.757Z,15.95
2019-05-06T06:30:06.605Z,16.20
2019-05-06T06:32:36.849Z,17.15
2019-05-06T06:35:19.152Z,14.20
2019-05-06T06:37:52.199Z,18.42
2019-05-06T06:40:23.622Z,14.20
2019-05-06T06:42:56.223Z,12.88
2019-05-06T06:45:25.677Z,12.85
2019-05-06T06:47:55.236Z,13.60
2019-05-06T06:50:25.339Z,13.90
2019-05-06T06:52:58.416Z,17.32
2019-05-06T06:55:27.911Z,15.30
2019-05-06T06:58:16.807Z,13.20
2019-05-06T07:00:53.332Z,17.48
2019-05-06T07:03:32.755Z,13.22
2019-05-06T07:06:04.047Z,15.95
2019-05-06T07:08:37.399Z,12.03
2019-05-06T07:11:04.879Z,15.32
2019-05-06T07:13:34.438Z,10.32
2019-05-06T07:16:05.594Z,13.98
2019-05-06T07:18:35.151Z,15.65
2019-05-06T07:21:06.863Z,13.58
2019-05-06T07:23:37.191Z,15.48
2019-05-06T07:26:06.825Z,14.47
2019-05-06T07:28:36.497Z,11.08
2019-05-06T07:31:18.783Z,11.38
2019-05-06T07:33:37.148Z,17.07
2019-05-06T07:36:06.976Z,13.35
2019-05-06T07:38:36.516Z,10.32
2019-05-06T07:41:10.127Z,13.00
2019-05-06T07:43:43.676Z,11.60
2019-05-06T07:46:14.818Z,12.33
2019-05-06T07:48:44.395Z,20.60
2019-05-06T07:51:13.859Z,13.00
2019-05-06T07:53:43.485Z,14.55
2019-05-06T07:56:13.151Z,9.23
2019-05-06T07:58:43.429Z,12.85
2019-05-06T08:01:13.738Z,15.03
2019-05-06T08:03:43.501Z,13.38
2019-05-06T08:06:13.425Z,13.30
2019-05-06T08:08:43.658Z,10.85
2019-05-06T08:11:13.256Z,9.48
2019-05-06T08:13:45.727Z,9.08
2019-05-06T08:16:15.232Z,9.78
2019-05-06T08:18:44.731Z,12.70
2019-05-06T08:21:16.085Z,9.28
2019-05-06T08:23:47.284Z,10.43
2019-05-06T08:26:17.869Z,9.33
2019-05-06T08:28:47.635Z,14.78
2019-05-06T08:31:19.028Z,9.35
2019-05-06T08:33:48.519Z,8.23
2019-05-06T08:36:19.793Z,9.13
2019-05-06T08:38:59.091Z,8.68
2019-05-06T08:41:28.750Z,11.03
2019-05-06T08:43:58.264Z,9.90
2019-05-06T08:46:27.758Z,10.60
2019-05-06T08:48:57.248Z,8.63
2019-05-06T08:51:43.571Z,17.48
2019-05-06T08:54:24.318Z,6.87
2019-05-06T08:56:53.777Z,8.25
2019-05-06T08:59:24.025Z,9.48
2019-05-06T09:01:55.809Z,10.55
2019-05-06T09:04:25.325Z,10.50
2019-05-06T09:06:55.133Z,11.35
2019-05-06T09:09:24.882Z,9.13
2019-05-06T09:11:54.351Z,8.68
2019-05-06T09:14:27.324Z,7.92
2019-05-06T09:16:58.182Z,6.25
2019-05-06T09:19:27.699Z,8.03
2019-05-06T09:21:57.141Z,8.50
2019-05-06T09:24:26.577Z,7.35
2019-05-06T09:26:58.161Z,7.87
2019-05-06T09:29:32.704Z,10.43
2019-05-06T09:32:19.500Z,9.80
2019-05-06T09:34:53.178Z,8.50
2019-05-06T09:37:23.946Z,8.35
2019-05-06T09:39:53.995Z,9.00
2019-05-06T09:42:23.578Z,5.75
2019-05-06T09:44:54.388Z,6.80
2019-05-06T09:47:33.045Z,4.92
2019-05-06T09:50:04.952Z,8.48
2019-05-06T09:52:34.475Z,8.88
2019-05-06T09:55:09.990Z,6.60
2019-05-06T09:57:59.420Z,7.45
2019-05-06T10:00:32.964Z,7.25
2019-05-06T10:03:03.121Z,6.90
2019-05-06T10:05:33.381Z,6.05
2019-05-06T10:08:03.674Z,5.25
2019-05-06T10:10:34.225Z,8.20
2019-05-06T10:13:03.871Z,6.60
2019-05-06T10:15:33.619Z,6.78
2019-05-06T10:18:13.414Z,9.33
2019-05-06T10:20:45.443Z,7.15
2019-05-06T10:23:16.179Z,7.65
2019-05-06T10:25:45.736Z,7.45
2019-05-06T10:28:26.795Z,7.17
2019-05-06T10:30:56.357Z,6.37
2019-05-06T10:33:33.241Z,6.95
2019-05-06T10:36:04.175Z,8.45
2019-05-06T10:38:37.039Z,7.35
2019-05-06T10:41:12.997Z,5.62
2019-05-06T10:43:52.541Z,6.55
2019-05-06T10:46:22.636Z,6.35
2019-05-06T10:48:53.020Z,8.13
2019-05-06T10:51:32.247Z,8.38
2019-05-06T10:54:02.982Z,7.22
2019-05-06T10:56:49.087Z,5.97
2019-05-06T10:59:12.850Z,5.50
2019-05-06T11:01:49.479Z,6.33
2019-05-06T11:04:19.048Z,5.75
2019-05-06T11:06:48.634Z,7.28
2019-05-06T11:09:18.087Z,5.37
2019-05-06T11:11:47.983Z,4.53
2019-05-06T11:14:17.787Z,4.47
2019-05-06T11:16:47.304Z,6.00
2019-05-06T11:19:16.891Z,6.60
2019-05-06T11:21:46.543Z,6.22
2019-05-06T11:24:16.161Z,5.78
2019-05-06T11:26:45.666Z,6.58
2019-05-06T11:29:16.791Z,6.00
2019-05-06T11:31:47.952Z,6.75
2019-05-06T11:34:19.127Z,4.97
2019-05-06T11:36:56.253Z,6.50
2019-05-06T11:39:25.820Z,6.85
2019-05-06T11:42:15.001Z,5.92
2019-05-06T11:44:26.528Z,8.03
2019-05-06T11:46:56.159Z,4.90
2019-05-06T11:49:25.681Z,5.80
2019-05-06T11:51:55.167Z,6.40
2019-05-06T11:54:25.080Z,5.75
2019-05-06T11:56:58.168Z,6.50
2019-05-06T11:59:26.303Z,4.72
2019-05-06T12:02:02.622Z,6.65
2019-05-06T12:04:33.038Z,5.62
2019-05-06T12:07:11.423Z,4.08
2019-05-06T12:09:33.756Z,5.90
2019-05-06T12:12:03.483Z,6.55
2019-05-06T12:14:33.105Z,6.72
2019-05-06T12:17:02.590Z,7.78
2019-05-06T12:19:33.423Z,4.70
2019-05-06T12:22:04.985Z,5.60
2019-05-06T12:24:34.506Z,6.33
2019-05-06T12:27:05.139Z,6.42
2019-05-06T12:29:34.667Z,6.83
2019-05-06T12:32:08.427Z,5.92
2019-05-06T12:34:37.942Z,6.45
2019-05-06T12:37:09.141Z,4.30
2019-05-06T12:39:40.326Z,6.62
2019-05-06T12:42:14.327Z,7.60
2019-05-06T12:44:45.672Z,7.20
2019-05-06T12:47:16.972Z,6.28
2019-05-06T12:49:46.465Z,8.38
2019-05-06T12:52:15.954Z,6.10
2019-05-06T12:54:45.875Z,6.58
2019-05-06T12:57:15.700Z,6.78
2019-05-06T12:59:45.515Z,3.83
2019-05-06T13:02:15.064Z,5.85
2019-05-06T13:04:55.169Z,5.37
2019-05-06T13:07:18.154Z,7.28
2019-05-06T13:09:47.653Z,5.20
2019-05-06T13:12:18.791Z,4.80
2019-05-06T13:14:48.286Z,4.92
2019-05-06T13:17:19.720Z,4.47
2019-05-06T13:19:49.177Z,4.55
2019-05-06T13:22:24.249Z,6.92
2019-05-06T13:24:52.090Z,5.22
2019-05-06T13:27:23.625Z,6.12
2019-05-06T13:29:53.481Z,4.95
2019-05-06T13:32:24.619Z,5.10
2019-05-06T13:34:54.069Z,9.23
2019-05-06T13:37:23.665Z,5.72
2019-05-06T13:39:53.340Z,5.58
2019-05-06T13:42:24.666Z,6.20
2019-05-06T13:44:55.683Z,6.10
2019-05-06T13:47:42.625Z,7.65
2019-05-06T13:50:16.066Z,8.68
2019-05-06T13:52:47.214Z,4.47
2019-05-06T13:55:16.729Z,6.65
2019-05-06T13:57:46.246Z,4.90
2019-05-06T14:00:16.498Z,6.50
2019-05-06T14:02:53.019Z,5.15
2019-05-06T14:05:21.961Z,4.92
2019-05-06T14:07:52.798Z,6.90
2019-05-06T14:10:22.577Z,5.85
2019-05-06T14:12:53.360Z,5.97
2019-05-06T14:15:23.531Z,5.50
2019-05-06T14:17:53.576Z,6.90
2019-05-06T14:20:24.100Z,6.58
2019-05-06T14:22:53.565Z,8.93
2019-05-06T14:25:24.737Z,7.45
2019-05-06T14:27:58.665Z,6.90
2019-05-06T14:30:43.006Z,9.50
2019-05-06T14:33:15.432Z,6.40
2019-05-06T14:35:45.341Z,6.72
2019-05-06T14:38:14.791Z,6.83
2019-05-06T14:41:04.398Z,8.30
2019-05-06T14:43:33.864Z,5.10
2019-05-06T14:46:03.626Z,8.05
2019-05-06T14:48:33.333Z,7.60
2019-05-06T14:51:02.805Z,6.55
2019-05-06T14:53:33.304Z,6.37
2019-05-06T14:56:23.405Z,7.03
2019-05-06T14:59:05.931Z,7.53
2019-05-06T15:01:36.918Z,8.40
2019-05-06T15:04:06.579Z,7.97
2019-05-06T15:06:36.292Z,9.30
2019-05-06T15:09:08.114Z,9.65
2019-05-06T15:11:37.966Z,8.45
2019-05-06T15:14:07.876Z,6.90
2019-05-06T15:16:37.432Z,10.45
2019-05-06T15:19:06.940Z,11.15
2019-05-06T15:21:38.746Z,9.13
2019-05-06T15:24:07.684Z,8.85
2019-05-06T15:26:37.173Z,8.15
2019-05-06T15:29:06.976Z,7.58
2019-05-06T15:31:56.889Z,8.50
2019-05-06T15:34:33.642Z,7.60
2019-05-06T15:37:08.728Z,7.58
2019-05-06T15:39:38.539Z,8.18
2019-05-06T15:42:08.025Z,6.87
2019-05-06T15:44:37.514Z,7.35
2019-05-06T15:47:07.022Z,7.10
2019-05-06T15:49:36.538Z,7.30
2019-05-06T15:52:06.175Z,7.45
2019-05-06T15:54:35.723Z,5.20
2019-05-06T15:57:05.162Z,5.33
2019-05-06T15:59:34.648Z,5.20
2019-05-06T16:02:04.161Z,6.10
2019-05-06T16:04:33.815Z,5.58
2019-05-06T16:07:03.265Z,5.60
2019-05-06T16:09:32.994Z,6.92
2019-05-06T16:12:03.015Z,5.45
2019-05-06T16:14:34.893Z,4.62
2019-05-06T16:17:04.847Z,5.47
2019-05-06T16:19:35.504Z,7.33
2019-05-06T16:22:04.984Z,7.28
2019-05-06T16:24:38.775Z,7.33
2019-05-06T16:27:08.269Z,7.92
2019-05-06T16:29:38.226Z,4.53
2019-05-06T16:32:09.092Z,5.35
2019-05-06T16:34:38.600Z,5.70
2019-05-06T16:37:08.153Z,6.05
2019-05-06T16:39:37.599Z,5.83
2019-05-06T16:42:07.534Z,5.47
2019-05-06T16:44:37.020Z,5.17
2019-05-06T16:47:06.501Z,6.53
2019-05-06T16:49:36.031Z,5.60
2019-05-06T16:52:05.681Z,5.17
2019-05-06T16:54:35.194Z,8.20
2019-05-06T16:57:13.587Z,6.75
2019-05-06T16:59:43.683Z,7.75
2019-05-06T17:02:14.780Z,5.45
2019-05-06T17:04:49.766Z,6.08
2019-05-06T17:07:22.193Z,7.47
2019-05-06T17:09:52.611Z,5.58
2019-05-06T17:12:22.496Z,7.72
2019-05-06T17:14:52.802Z,11.63
2019-05-06T17:17:22.928Z,7.05
2019-05-06T17:19:52.940Z,6.10
2019-05-06T17:22:22.976Z,6.28
2019-05-06T17:24:52.939Z,7.40
2019-05-06T17:27:23.593Z,6.55
2019-05-06T17:29:57.736Z,7.08
2019-05-06T17:32:28.884Z,5.60
2019-05-06T17:35:02.436Z,7.37
2019-05-06T17:37:50.093Z,7.80
2019-05-06T17:40:23.070Z,7.78
2019-05-06T17:42:53.389Z,6.67
2019-05-06T17:45:57.995Z,8.20
2019-05-06T17:48:16.378Z,12.98
2019-05-06T17:50:47.511Z,7.33
2019-05-06T17:53:17.084Z,8.25
2019-05-06T17:55:46.533Z,9.38
2019-05-06T17:58:16.460Z,8.83
2019-05-06T18:00:46.277Z,7.87
2019-05-06T18:03:16.836Z,6.20
2019-05-06T18:05:46.398Z,7.37
2019-05-06T18:08:15.888Z,8.13
2019-05-06T18:10:45.401Z,6.78
2019-05-06T18:13:15.871Z,6.72
2019-05-06T18:15:45.369Z,9.10
2019-05-06T18:18:15.583Z,6.33
2019-05-06T18:20:45.076Z,6.40
2019-05-06T18:23:15.697Z,6.55
2019-05-06T18:25:45.259Z,9.55
2019-05-06T18:28:15.151Z,5.20
2019-05-06T18:30:44.722Z,6.40
2019-05-06T18:33:14.899Z,7.03
2019-05-06T18:35:45.060Z,7.42
2019-05-06T18:38:14.600Z,6.00
2019-05-06T18:40:44.914Z,10.20
2019-05-06T18:43:14.459Z,6.60
2019-05-06T18:45:44.277Z,8.08
2019-05-06T18:48:13.818Z,6.08
2019-05-06T18:50:43.685Z,7.00
2019-05-06T18:53:13.604Z,6.65
2019-05-06T18:55:43.138Z,6.87
2019-05-06T18:58:12.915Z,7.37
2019-05-06T19:00:44.017Z,6.12
2019-05-06T19:03:14.673Z,7.28
2019-05-06T19:05:45.163Z,7.60
2019-05-06T19:08:22.224Z,6.65
2019-05-06T19:10:53.207Z,10.72
2019-05-06T19:13:22.771Z,7.55
2019-05-06T19:15:52.739Z,8.38
2019-05-06T19:18:22.516Z,11.97
2019-05-06T19:20:53.077Z,8.60
2019-05-06T19:23:22.634Z,8.55
2019-05-06T19:25:52.113Z,8.45
2019-05-06T19:28:22.052Z,9.63
2019-05-06T19:30:54.137Z,11.53
2019-05-06T19:33:23.555Z,9.83
2019-05-06T19:35:54.093Z,11.75
2019-05-06T19:38:24.464Z,10.72
2019-05-06T19:40:55.239Z,13.55
2019-05-06T19:43:24.704Z,12.30
2019-05-06T19:45:54.278Z,11.70
2019-05-06T19:48:24.711Z,11.75
2019-05-06T19:50:55.834Z,14.83
2019-05-06T19:53:25.930Z,15.30
2019-05-06T19:55:55.388Z,15.05
2019-05-06T19:58:24.904Z,15.50
2019-05-06T20:00:56.393Z,15.55
2019-05-06T20:03:26.063Z,18.23
2019-05-06T20:05:57.834Z,16.25
2019-05-06T20:08:38.335Z,18.62
2019-05-06T20:11:13.649Z,16.62
2019-05-06T20:13:43.209Z,17.15
2019-05-06T20:16:13.073Z,14.30
2019-05-06T20:18:42.860Z,8.85
2019-05-06T20:21:12.427Z,8.85
2019-05-06T20:23:42.521Z,9.00
2019-05-06T20:26:12.505Z,10.30
2019-05-06T20:28:42.943Z,13.85
2019-05-06T20:31:12.711Z,11.00
2019-05-06T20:33:42.348Z,12.98
2019-05-06T20:36:12.606Z,10.78
2019-05-06T20:38:43.171Z,7.42
2019-05-06T20:41:13.707Z,9.15
2019-05-06T20:43:43.185Z,8.25
2019-05-06T20:46:13.035Z,9.05
2019-05-06T20:48:42.591Z,8.20
2019-05-06T20:51:13.204Z,7.42
2019-05-06T20:53:43.288Z,9.85
2019-05-06T20:56:12.775Z,9.38
2019-05-06T20:58:42.259Z,9.70
2019-05-06T21:01:13.183Z,9.20
2019-05-06T21:03:42.631Z,8.20
2019-05-06T21:06:13.185Z,11.48
2019-05-06T21:08:42.836Z,9.70
2019-05-06T21:11:25.893Z,9.55
2019-05-06T21:13:43.833Z,8.83
2019-05-06T21:16:13.645Z,9.38
2019-05-06T21:18:43.447Z,9.68
2019-05-06T21:21:13.651Z,10.70
2019-05-06T21:23:43.198Z,9.93
2019-05-06T21:26:13.694Z,9.28
2019-05-06T21:28:46.306Z,12.50
2019-05-06T21:31:14.981Z,10.75
2019-05-06T21:33:44.424Z,10.13
2019-05-06T21:36:13.932Z,11.43
2019-05-06T21:38:43.417Z,9.53
2019-05-06T21:41:12.858Z,9.55
2019-05-06T21:43:49.463Z,10.78
2019-05-06T21:46:13.956Z,10.58
2019-05-06T21:48:43.808Z,10.58
2019-05-06T21:51:13.596Z,11.10
2019-05-06T21:53:43.150Z,9.93
2019-05-06T21:56:13.153Z,10.93
2019-05-06T21:58:42.940Z,11.22
2019-05-06T22:01:13.166Z,11.60
2019-05-06T22:03:43.464Z,12.85
2019-05-06T22:06:13.498Z,11.33
2019-05-06T22:08:43.042Z,11.28
2019-05-06T22:11:12.910Z,11.65
2019-05-06T22:13:42.727Z,12.88
2019-05-06T22:16:12.618Z,11.28
2019-05-06T22:18:45.482Z,14.75
2019-05-06T22:21:22.522Z,12.53
2019-05-06T22:24:04.307Z,13.25
2019-05-06T22:26:32.996Z,12.55
2019-05-06T22:29:02.588Z,12.68
2019-05-06T22:31:33.055Z,14.00
2019-05-06T22:34:02.816Z,12.68
2019-05-06T22:36:32.677Z,12.88
2019-05-06T22:39:02.585Z,14.55
2019-05-06T22:41:33.714Z,13.70
2019-05-06T22:44:13.145Z,15.28
2019-05-06T22:46:34.508Z,15.80
2019-05-06T22:49:03.997Z,14.30
2019-05-06T22:51:33.442Z,18.25
2019-05-06T22:54:03.023Z,13.72
2019-05-06T22:56:32.736Z,16.05
2019-05-06T22:59:03.355Z,14.78
2019-05-06T23:01:43.796Z,15.70
2019-05-06T23:04:14.921Z,15.48
2019-05-06T23:06:44.374Z,17.98
2019-05-06T23:09:13.926Z,15.78
2019-05-06T23:11:43.390Z,15.50
2019-05-06T23:14:27.547Z,16.25
2019-05-06T23:16:44.518Z,15.35
2019-05-06T23:19:14.070Z,15.63
2019-05-06T23:21:43.879Z,17.48
2019-05-06T23:24:13.384Z,16.40
2019-05-06T23:26:42.851Z,17.70
2019-05-06T23:29:13.057Z,20.12
2019-05-06T23:31:43.255Z,18.25
2019-05-06T23:34:13.234Z,18.67
2019-05-06T23:37:02.671Z,18.82
2019-05-06T23:40:12.664Z,19.20
2019-05-06T23:43:22.059Z,21.25
2019-05-06T23:46:27.811Z,19.23
2019-05-06T23:49:34.127Z,21.65
2019-05-06T23:52:40.306Z,23.12
2019-05-06T23:55:46.181Z,22.27
2019-05-06T23:58:15.497Z,23.15
